Observation data for Goodlett on 01/17/2021      Previous  Date  Next       Current Mesonet Observations  Soil Data  Daily Summary Page  Observations in Plain Language
KGDS 170600Z 30013KT 04/M05 A3006 RMK A01 T00421045  RH  053%=      5-min Rain = 0
KGDS 170605Z 30013KT 04/M05 A3006 RMK A01 T00391045  RH  055%=      5-min Rain = 0
KGDS 170610Z 30013KT 04/M04 A3006 RMK A01 T00371044  RH  055%=      5-min Rain = 0
KGDS 170615Z 30013KT 04/M04 A3006 RMK A01 T00381044  RH  055%=      5-min Rain = 0
KGDS 170620Z 30013KT 04/M04 A3006 RMK A01 T00371044  RH  056%=      5-min Rain = 0
KGDS 170625Z 29013KT 03/M04 A3006 RMK A01 T00341044  RH  057%=      5-min Rain = 0
KGDS 170630Z 29013KT 03/M04 A3006 RMK A01 T00341043  RH  057%=      5-min Rain = 0
KGDS 170635Z 29012KT 03/M04 A3007 RMK A01 T00331043  RH  058%=      5-min Rain = 0
KGDS 170640Z 30012KT 03/M04 A3007 RMK A01 T00331043  RH  058%=      5-min Rain = 0
KGDS 170645Z 30011KT 03/M04 A3007 RMK A01 T00331043  RH  058%=      5-min Rain = 0
KGDS 170650Z 30011KT 03/M04 A3007 RMK A01 T00311043  RH  059%=      5-min Rain = 0
KGDS 170655Z 31011KT 03/M04 A3007 RMK A01 T00271043  RH  060%=      5-min Rain = 0
KGDS 170700Z 32012KT 02/M04 A3007 RMK A01 T00221043  RH  062%=      5-min Rain = 0
KGDS 170705Z 31012KT 02/M04 A3007 RMK A01 T00241043  RH  061%=      5-min Rain = 0
KGDS 170710Z 31012KT 03/M05 A3007 RMK A01 T00271045  RH  059%=      5-min Rain = 0
KGDS 170715Z 30012KT 03/M05 A3007 RMK A01 T00251045  RH  060%=      5-min Rain = 0
KGDS 170720Z 30012KT 02/M05 A3007 RMK A01 T00231045  RH  061%=      5-min Rain = 0
KGDS 170725Z 29011KT 02/M05 A3007 RMK A01 T00201045  RH  062%=      5-min Rain = 0
KGDS 170730Z 30011KT 02/M04 A3008 RMK A01 T00191044  RH  063%=      5-min Rain = 0
KGDS 170735Z 30011KT 02/M04 A3008 RMK A01 T00221042  RH  063%=      5-min Rain = 0
KGDS 170740Z 31011KT 02/M04 A3008 RMK A01 T00211041  RH  063%=      5-min Rain = 0
KGDS 170745Z 31012KT 02/M04 A3008 RMK A01 T00231040  RH  063%=      5-min Rain = 0
KGDS 170750Z 31012KT 02/M04 A3008 RMK A01 T00241038  RH  064%=      5-min Rain = 0
KGDS 170755Z 31012KT 03/M04 A3009 RMK A01 T00251036  RH  064%=      5-min Rain = 0
KGDS 170800Z 31011KT 02/M04 A3009 RMK A01 T00221037  RH  065%=      5-min Rain = 0
KGDS 170805Z 32011KT 02/M04 A3009 RMK A01 T00211036  RH  066%=      5-min Rain = 0
KGDS 170810Z 32010KT 02/M03 A3009 RMK A01 T00241034  RH  066%=      5-min Rain = 0
KGDS 170815Z 32010KT 03/M03 A3009 RMK A01 T00251034  RH  065%=      5-min Rain = 0
KGDS 170820Z 32010KT 02/M03 A3009 RMK A01 T00231034  RH  066%=      5-min Rain = 0
KGDS 170825Z 32010KT 02/M03 A3009 RMK A01 T00241034  RH  066%=      5-min Rain = 0
KGDS 170830Z 32011KT 03/M03 A3009 RMK A01 T00271034  RH  065%=      5-min Rain = 0
KGDS 170835Z 32010KT 03/M03 A3009 RMK A01 T00301033  RH  064%=      5-min Rain = 0
KGDS 170840Z 32010KT 03/M03 A3009 RMK A01 T00281034  RH  064%=      5-min Rain = 0
KGDS 170845Z 31010KT 02/M04 A3009 RMK A01 T00241035  RH  065%=      5-min Rain = 0
KGDS 170850Z 32010KT 02/M04 A3009 RMK A01 T00211035  RH  067%=      5-min Rain = 0
KGDS 170855Z 32010KT 02/M04 A3009 RMK A01 T00201036  RH  067%=      5-min Rain = 0
KGDS 170900Z 32010KT 02/M04 A3009 RMK A01 T00191036  RH  067%=      5-min Rain = 0
KGDS 170905Z 32010KT 02/M04 A3009 RMK A01 T00191036  RH  068%=      5-min Rain = 0
KGDS 170910Z 32010KT 02/M04 A3009 RMK A01 T00171036  RH  068%=      5-min Rain = 0
KGDS 170915Z 32010KT 02/M04 A3009 RMK A01 T00171036  RH  068%=      5-min Rain = 0
KGDS 170920Z 32010KT 02/M04 A3009 RMK A01 T00161036  RH  069%=      5-min Rain = 0
KGDS 170925Z 32011KT 02/M04 A3009 RMK A01 T00151037  RH  069%=      5-min Rain = 0
KGDS 170930Z 32011KT 02/M04 A3009 RMK A01 T00171036  RH  068%=      5-min Rain = 0
KGDS 170935Z 33012KT 02/M04 A3009 RMK A01 T00191037  RH  067%=      5-min Rain = 0
KGDS 170940Z 32011KT 02/M04 A3009 RMK A01 T00181037  RH  067%=      5-min Rain = 0
KGDS 170945Z 33011KT 02/M04 A3009 RMK A01 T00161038  RH  068%=      5-min Rain = 0
KGDS 170950Z 32010KT 02/M04 A3009 RMK A01 T00171038  RH  067%=      5-min Rain = 0
KGDS 170955Z 32010KT 02/M04 A3009 RMK A01 T00151038  RH  068%=      5-min Rain = 0
KGDS 171000Z 32010KT 02/M04 A3009 RMK A01 T00221039  RH  065%=      5-min Rain = 0
KGDS 171005Z 32010KT 01/M04 A3009 RMK A01 T00131040  RH  068%=      5-min Rain = 0
KGDS 171010Z 32010KT 01/M04 A3009 RMK A01 T00101040  RH  070%=      5-min Rain = 0
KGDS 171015Z 32010KT 01/M04 A3009 RMK A01 T00121040  RH  069%=      5-min Rain = 0
KGDS 171020Z 32010KT 01/M04 A301 RMK A01 T00141039  RH  068%=      5-min Rain = 0
KGDS 171025Z 32009KT 02/M04 A301 RMK A01 T00151039  RH  068%=      5-min Rain = 0
KGDS 171030Z 32009KT 02/M04 A301 RMK A01 T00171038  RH  067%=      5-min Rain = 0
KGDS 171035Z 31009KT 02/M04 A301 RMK A01 T00191037  RH  066%=      5-min Rain = 0
KGDS 171040Z 31008KT 02/M04 A301 RMK A01 T00201038  RH  066%=      5-min Rain = 0
KGDS 171045Z 31008KT 02/M04 A301 RMK A01 T00201037  RH  066%=      5-min Rain = 0
KGDS 171050Z 31008KT 02/M04 A301 RMK A01 T00211037  RH  066%=      5-min Rain = 0
KGDS 171055Z 31008KT 02/M04 A301 RMK A01 T00241036  RH  065%=      5-min Rain = 0
KGDS 171100Z 32008KT 03/M04 A301 RMK A01 T00271036  RH  064%=      5-min Rain = 0
KGDS 171105Z 32008KT 03/M04 A301 RMK A01 T00291035  RH  063%=      5-min Rain = 0
KGDS 171110Z 32009KT 03/M04 A301 RMK A01 T00341036  RH  060%=      5-min Rain = 0
KGDS 171115Z 31007KT 03/M03 A301 RMK A01 T00291034  RH  063%=      5-min Rain = 0
KGDS 171120Z 31006KT 03/M03 A301 RMK A01 T00281034  RH  064%=      5-min Rain = 0
KGDS 171125Z 31005KT 03/M03 A301 RMK A01 T00281034  RH  064%=      5-min Rain = 0
KGDS 171130Z 29004KT 03/M03 A301 RMK A01 T00251032  RH  067%=      5-min Rain = 0
KGDS 171135Z 26002KT 02/M03 A301 RMK A01 T00191031  RH  070%=      5-min Rain = 0
KGDS 171140Z 23003KT 01/M03 A301 RMK A01 T00081031  RH  075%=      5-min Rain = 0
KGDS 171145Z 24003KT 01/M03 A3011 RMK A01 T00051030  RH  078%=      5-min Rain = 0
KGDS 171150Z 26003KT 01/M03 A3011 RMK A01 T00061029  RH  078%=      5-min Rain = 0
KGDS 171155Z 27003KT 01/M03 A3011 RMK A01 T00081030  RH  077%=      5-min Rain = 0
KGDS 171200Z 27004KT 01/M03 A3011 RMK A01 T00101030  RH  075%=      5-min Rain = 0
KGDS 171205Z 27004KT 01/M03 A3011 RMK A01 T00131031  RH  073%=      5-min Rain = 0
KGDS 171210Z 27004KT 01/M03 A3011 RMK A01 T00141032  RH  072%=      5-min Rain = 0
KGDS 171215Z 28005KT 02/M03 A3012 RMK A01 T00171032  RH  070%=      5-min Rain = 0
KGDS 171220Z 27004KT 02/M03 A3012 RMK A01 T00181033  RH  069%=      5-min Rain = 0
KGDS 171225Z 26004KT 02/M03 A3012 RMK A01 T00151034  RH  070%=      5-min Rain = 0
KGDS 171230Z 24004KT 01/M04 A3013 RMK A01 T00091035  RH  073%=      5-min Rain = 0
KGDS 171235Z 23004KT 00/M04 A3013 RMK A01 T00031037  RH  075%=      5-min Rain = 0
KGDS 171240Z 24005KT M00/M04 A3013 RMK A01 T10031037  RH  078%=      5-min Rain = 0
KGDS 171245Z 25005KT M00/M04 A3013 RMK A01 T10031036  RH  079%=      5-min Rain = 0
KGDS 171250Z 25006KT M00/M04 A3013 RMK A01 T10021036  RH  078%=      5-min Rain = 0
KGDS 171255Z 25005KT M00/M04 A3014 RMK A01 T10021037  RH  078%=      5-min Rain = 0
KGDS 171300Z 25005KT M01/M04 A3014 RMK A01 T10051038  RH  079%=      5-min Rain = 0
KGDS 171305Z 26006KT M01/M04 A3014 RMK A01 T10081038  RH  080%=      5-min Rain = 0
KGDS 171310Z 27006KT M01/M04 A3014 RMK A01 T10071038  RH  080%=      5-min Rain = 0
KGDS 171315Z 27005KT M01/M04 A3015 RMK A01 T10081039  RH  080%=      5-min Rain = 0
KGDS 171320Z 26004KT M01/M04 A3015 RMK A01 T10081039  RH  080%=      5-min Rain = 0
KGDS 171325Z 27004KT M01/M04 A3015 RMK A01 T10061039  RH  079%=      5-min Rain = 0
KGDS 171330Z 28005KT M00/M04 A3014 RMK A01 T10041039  RH  078%=      5-min Rain = 0
KGDS 171335Z 27005KT M00/M04 A3015 RMK A01 T10031040  RH  076%=      5-min Rain = 0
KGDS 171340Z 26004KT M01/M04 A3015 RMK A01 T10051040  RH  077%=      5-min Rain = 0
KGDS 171345Z 23004KT M01/M04 A3015 RMK A01 T10071041  RH  078%=      5-min Rain = 0
KGDS 171350Z 23006KT M01/M04 A3015 RMK A01 T10111040  RH  081%=      5-min Rain = 0
KGDS 171355Z 25005KT M01/M04 A3015 RMK A01 T10101040  RH  080%=      5-min Rain = 0
KGDS 171400Z 26005KT M01/M04 A3015 RMK A01 T10091040  RH  080%=      5-min Rain = 0
KGDS 171405Z 27005KT M01/M04 A3015 RMK A01 T10081039  RH  080%=      5-min Rain = 0
KGDS 171410Z 27005KT M01/M04 A3015 RMK A01 T10071038  RH  079%=      5-min Rain = 0
KGDS 171415Z 28005KT M00/M04 A3016 RMK A01 T10041037  RH  079%=      5-min Rain = 0
KGDS 171420Z 28005KT 00/M04 A3016 RMK A01 T00011036  RH  077%=      5-min Rain = 0
KGDS 171425Z 29008KT 01/M03 A3016 RMK A01 T00101032  RH  074%=      5-min Rain = 0
KGDS 171430Z 29009KT 02/M03 A3016 RMK A01 T00211033  RH  068%=      5-min Rain = 0
KGDS 171435Z 29008KT 02/M03 A3016 RMK A01 T00231034  RH  066%=      5-min Rain = 0
KGDS 171440Z 29009KT 03/M03 A3016 RMK A01 T00251033  RH  066%=      5-min Rain = 0
KGDS 171445Z 29008KT 03/M03 A3016 RMK A01 T00281033  RH  065%=      5-min Rain = 0
KGDS 171450Z 28007KT 03/M03 A3016 RMK A01 T00291033  RH  064%=      5-min Rain = 0
KGDS 171455Z 29008KT 03/M03 A3016 RMK A01 T00321033  RH  063%=      5-min Rain = 0
KGDS 171500Z 29008KT 03/M03 A3017 RMK A01 T00341033  RH  062%=      5-min Rain = 0
KGDS 171505Z 29007KT 04/M03 A3017 RMK A01 T00391030  RH  061%=      5-min Rain = 0
KGDS 171510Z 29008KT 05/M03 A3017 RMK A01 T00461030  RH  058%=      5-min Rain = 0
KGDS 171515Z 29008KT 05/M03 A3017 RMK A01 T00521029  RH  056%=      5-min Rain = 0
KGDS 171520Z 29008KT 05/M03 A3018 RMK A01 T00541031  RH  055%=      5-min Rain = 0
KGDS 171525Z 29008KT 05/M03 A3018 RMK A01 T00531032  RH  055%=      5-min Rain = 0
KGDS 171530Z 28008KT 05/M03 A3018 RMK A01 T00541031  RH  055%=      5-min Rain = 0
KGDS 171535Z 28006KT 05/M03 A3018 RMK A01 T00541031  RH  055%=      5-min Rain = 0
KGDS 171540Z 28006KT 06/M03 A3018 RMK A01 T00551029  RH  055%=      5-min Rain = 0
KGDS 171545Z 28006KT 06/M03 A3018 RMK A01 T00571028  RH  055%=      5-min Rain = 0
KGDS 171550Z 28006KT 06/M03 A3018 RMK A01 T00581027  RH  055%=      5-min Rain = 0
KGDS 171555Z 28007KT 06/M03 A3018 RMK A01 T00601029  RH  053%=      5-min Rain = 0
KGDS 171600Z 29007KT 06/M03 A3018 RMK A01 T00631028  RH  052%=      5-min Rain = 0
KGDS 171605Z 29008KT 06/M03 A3018 RMK A01 T00641030  RH  051%=      5-min Rain = 0
KGDS 171610Z 30008KT 07/M03 A3019 RMK A01 T00671029  RH  051%=      5-min Rain = 0
KGDS 171615Z 30009KT 07/M03 A3019 RMK A01 T00681032  RH  049%=      5-min Rain = 0
KGDS 171620Z 30009KT 07/M03 A3019 RMK A01 T00681032  RH  049%=      5-min Rain = 0
KGDS 171625Z 30009KT 07/M03 A3019 RMK A01 T00701031  RH  049%=      5-min Rain = 0
KGDS 171630Z 30008KT 07/M03 A302 RMK A01 T00711031  RH  048%=      5-min Rain = 0
KGDS 171635Z 30009KT 07/M03 A302 RMK A01 T00721033  RH  048%=      5-min Rain = 0
KGDS 171640Z 30009KT 07/M03 A3019 RMK A01 T00741032  RH  047%=      5-min Rain = 0
KGDS 171645Z 30009KT 08/M03 A3019 RMK A01 T00761034  RH  046%=      5-min Rain = 0
KGDS 171650Z 30008KT 08/M03 A3019 RMK A01 T00771034  RH  045%=      5-min Rain = 0
KGDS 171655Z 29008KT 08/M03 A302 RMK A01 T00781033  RH  045%=      5-min Rain = 0
KGDS 171700Z 30007KT 08/M03 A302 RMK A01 T00801032  RH  045%=      5-min Rain = 0
KGDS 171705Z 31008KT 08/M03 A302 RMK A01 T00831033  RH  044%=      5-min Rain = 0
KGDS 171710Z 31009KT 08/M04 A302 RMK A01 T00831037  RH  043%=      5-min Rain = 0
KGDS 171715Z 31008KT 08/M04 A3019 RMK A01 T00841036  RH  043%=      5-min Rain = 0
KGDS 171720Z 32008KT 09/M03 A3019 RMK A01 T00861031  RH  044%=      5-min Rain = 0
KGDS 171725Z 31008KT 09/M03 A3019 RMK A01 T00881032  RH  043%=      5-min Rain = 0
KGDS 171730Z 31008KT 09/M03 A3019 RMK A01 T00901033  RH  042%=      5-min Rain = 0
KGDS 171735Z 32008KT 09/M03 A3019 RMK A01 T00911033  RH  042%=      5-min Rain = 0
KGDS 171740Z 32007KT 09/M04 A3018 RMK A01 T00931036  RH  040%=      5-min Rain = 0
KGDS 171745Z 32009KT 09/M04 A3018 RMK A01 T00931037  RH  040%=      5-min Rain = 0
KGDS 171750Z 32009KT 09/M04 A3018 RMK A01 T00931039  RH  039%=      5-min Rain = 0
KGDS 171755Z 31010KT 10/M04 A3017 RMK A01 T00951038  RH  039%=      5-min Rain = 0
KGDS 171800Z 31010KT 10/M04 A3017 RMK A01 T00951040  RH  038%=      5-min Rain = 0
KGDS 171805Z 32010KT 10/M04 A3016 RMK A01 T00951040  RH  038%=      5-min Rain = 0
KGDS 171810Z 32009KT 10/M04 A3016 RMK A01 T00981038  RH  038%=      5-min Rain = 0
KGDS 171815Z 32008KT 10/M04 A3016 RMK A01 T00991037  RH  038%=      5-min Rain = 0
KGDS 171820Z 32010KT 10/M04 A3016 RMK A01 T01001039  RH  038%=      5-min Rain = 0
KGDS 171825Z 32010KT 10/M04 A3016 RMK A01 T00991038  RH  038%=      5-min Rain = 0
KGDS 171830Z 32008G13KT 10/M04 A3015 RMK A01 T01001037  RH  038%=      5-min Rain = 0
KGDS 171835Z 32010KT 10/M04 A3015 RMK A01 T01011041  RH  037%=      5-min Rain = 0
KGDS 171840Z 33009KT 10/M04 A3014 RMK A01 T01011041  RH  037%=      5-min Rain = 0
KGDS 171845Z 31009KT 11/M04 A3014 RMK A01 T01051041  RH  036%=      5-min Rain = 0
KGDS 171850Z 33009KT 11/M04 A3014 RMK A01 T01061040  RH  036%=      5-min Rain = 0
KGDS 171855Z 29007KT 11/M04 A3013 RMK A01 T01061039  RH  036%=      5-min Rain = 0
KGDS 171900Z 30008KT 11/M04 A3013 RMK A01 T01071041  RH  035%=      5-min Rain = 0
KGDS 171905Z 31006KT 11/M04 A3012 RMK A01 T01091040  RH  035%=      5-min Rain = 0
KGDS 171910Z 31006KT 11/M04 A3012 RMK A01 T01101040  RH  035%=      5-min Rain = 0
KGDS 171915Z 29005G10KT 11/M04 A3012 RMK A01 T01121039  RH  035%=      5-min Rain = 0
KGDS 171920Z 31007KT 11/M04 A3012 RMK A01 T01131040  RH  034%=      5-min Rain = 0
KGDS 171925Z 30005KT 11/M04 A3011 RMK A01 T01131043  RH  033%=      5-min Rain = 0
KGDS 171930Z 30008KT 12/M04 A3011 RMK A01 T01181041  RH  033%=      5-min Rain = 0
KGDS 171935Z 33007KT 12/M05 A3011 RMK A01 T01161045  RH  032%=      5-min Rain = 0
KGDS 171940Z 32007G13KT 12/M06 A3011 RMK A01 T01181057  RH  029%=      5-min Rain = 0
KGDS 171945Z 32008KT 12/M06 A3011 RMK A01 T01211059  RH  028%=      5-min Rain = 0
KGDS 171950Z 31006KT 12/M07 A3011 RMK A01 T01211065  RH  027%=      5-min Rain = 0
KGDS 171955Z 33008G13KT 12/M06 A3011 RMK A01 T01211064  RH  027%=      5-min Rain = 0
KGDS 172000Z 31009KT 12/M06 A3011 RMK A01 T01231063  RH  027%=      5-min Rain = 0
KGDS 172005Z 29007KT 12/M06 A301 RMK A01 T01221063  RH  027%=      5-min Rain = 0
KGDS 172010Z 31007G12KT 12/M06 A301 RMK A01 T01241060  RH  027%=      5-min Rain = 0
KGDS 172015Z 33008KT 13/M06 A301 RMK A01 T01261063  RH  026%=      5-min Rain = 0
KGDS 172020Z 33007KT 13/M06 A301 RMK A01 T01251062  RH  027%=      5-min Rain = 0
KGDS 172025Z 31007KT 13/M07 A3009 RMK A01 T01261065  RH  026%=      5-min Rain = 0
KGDS 172030Z 30006KT 13/M06 A3009 RMK A01 T01281064  RH  026%=      5-min Rain = 0
KGDS 172035Z 33011KT 13/M06 A3009 RMK A01 T01291062  RH  026%=      5-min Rain = 0
KGDS 172040Z 33009KT 13/M06 A3009 RMK A01 T01281063  RH  026%=      5-min Rain = 0
KGDS 172045Z 32007KT 13/M06 A3009 RMK A01 T01261064  RH  026%=      5-min Rain = 0
KGDS 172050Z 32008KT 13/M06 A3009 RMK A01 T01291063  RH  026%=      5-min Rain = 0
KGDS 172055Z 30008KT 13/M07 A3009 RMK A01 T01281065  RH  025%=      5-min Rain = 0
KGDS 172100Z 33007KT 13/M06 A3009 RMK A01 T01301063  RH  026%=      5-min Rain = 0
KGDS 172105Z 31008KT 13/M06 A3009 RMK A01 T01311063  RH  025%=      5-min Rain = 0
KGDS 172110Z 30008KT 13/M06 A3009 RMK A01 T01321063  RH  025%=      5-min Rain = 0
KGDS 172115Z 30007KT 13/M07 A3009 RMK A01 T01301065  RH  025%=      5-min Rain = 0
KGDS 172120Z 32005G10KT 13/M06 A3009 RMK A01 T01321064  RH  025%=      5-min Rain = 0
KGDS 172125Z 33007KT 13/M07 A3009 RMK A01 T01321066  RH  025%=      5-min Rain = 0
KGDS 172130Z 33006KT 13/M07 A3009 RMK A01 T01321065  RH  025%=      5-min Rain = 0
KGDS 172135Z 33003KT 13/M07 A3008 RMK A01 T01331068  RH  024%=      5-min Rain = 0
KGDS 172140Z 34005KT 13/M07 A3008 RMK A01 T01341066  RH  024%=      5-min Rain = 0
KGDS 172145Z 31008G14KT 14/M07 A3008 RMK A01 T01361065  RH  024%=      5-min Rain = 0
KGDS 172150Z 31007KT 13/M07 A3008 RMK A01 T01341069  RH  024%=      5-min Rain = 0
KGDS 172155Z 33006KT 13/M07 A3007 RMK A01 T01331069  RH  024%=      5-min Rain = 0
KGDS 172200Z 32004KT 14/M07 A3007 RMK A01 T01351068  RH  024%=      5-min Rain = 0
KGDS 172205Z 34006G12KT 14/M07 A3007 RMK A01 T01361065  RH  024%=      5-min Rain = 0
KGDS 172210Z 28006KT 14/M07 A3007 RMK A01 T01371066  RH  024%=      5-min Rain = 0
KGDS 172215Z 29005KT 14/M07 A3007 RMK A01 T01351069  RH  024%=      5-min Rain = 0
KGDS 172220Z 28004KT 14/M07 A3007 RMK A01 T01361069  RH  024%=      5-min Rain = 0
KGDS 172225Z 29006KT 14/M07 A3007 RMK A01 T01351067  RH  024%=      5-min Rain = 0
KGDS 172230Z 27004KT 14/M07 A3007 RMK A01 T01351068  RH  024%=      5-min Rain = 0
KGDS 172235Z 30003KT 13/M07 A3006 RMK A01 T01341069  RH  024%=      5-min Rain = 0
KGDS 172240Z 31002KT 13/M07 A3006 RMK A01 T01341068  RH  024%=      5-min Rain = 0
KGDS 172245Z 29003KT 13/M07 A3006 RMK A01 T01341068  RH  024%=      5-min Rain = 0
KGDS 172250Z 30004KT 14/M07 A3006 RMK A01 T01351065  RH  024%=      5-min Rain = 0
KGDS 172255Z 27003KT 13/M07 A3006 RMK A01 T01331068  RH  024%=      5-min Rain = 0
KGDS 172300Z 30002KT 13/M07 A3006 RMK A01 T01341067  RH  024%=      5-min Rain = 0
KGDS 172305Z 27002KT 14/M07 A3006 RMK A01 T01351066  RH  024%=      5-min Rain = 0
KGDS 172310Z 25001KT 13/M07 A3006 RMK A01 T01331069  RH  024%=      5-min Rain = 0
KGDS 172315Z 00000KT 14/M07 A3006 RMK A01 T01361065  RH  024%=      5-min Rain = 0
KGDS 172320Z 26001KT 13/M07 A3006 RMK A01 T01341067  RH  024%=      5-min Rain = 0
KGDS 172325Z 26002KT 13/M06 A3006 RMK A01 T01291063  RH  026%=      5-min Rain = 0
KGDS 172330Z 25002KT 13/M06 A3006 RMK A01 T01261060  RH  027%=      5-min Rain = 0
KGDS 172335Z 25003KT 12/M06 A3006 RMK A01 T01231059  RH  028%=      5-min Rain = 0
KGDS 172340Z 24003KT 12/M06 A3006 RMK A01 T01211064  RH  027%=      5-min Rain = 0
KGDS 172345Z 25004KT 12/M06 A3006 RMK A01 T01181064  RH  027%=      5-min Rain = 0
KGDS 172350Z 24003KT 12/M06 A3006 RMK A01 T01151064  RH  028%=      5-min Rain = 0
KGDS 172355Z 23004KT 11/M06 A3006 RMK A01 T01141064  RH  028%=      5-min Rain = 0
KGDS 180000Z 22003KT 11/M06 A3006 RMK A01 T01121064  RH  029%=      5-min Rain = 0
KGDS 180005Z 20003KT 11/M06 A3006 RMK A01 T01081062  RH  030%=      5-min Rain = 0
KGDS 180010Z 20003KT 11/M06 A3006 RMK A01 T01061062  RH  030%=      5-min Rain = 0
KGDS 180015Z 20003KT 10/M06 A3006 RMK A01 T01041062  RH  031%=      5-min Rain = 0
KGDS 180020Z 21003KT 10/M06 A3006 RMK A01 T01011061  RH  031%=      5-min Rain = 0
KGDS 180025Z 22004KT 10/M06 A3006 RMK A01 T00951059  RH  033%=      5-min Rain = 0
KGDS 180030Z 22004KT 09/M06 A3006 RMK A01 T00931059  RH  034%=      5-min Rain = 0
KGDS 180035Z 22004KT 09/M06 A3006 RMK A01 T00911060  RH  034%=      5-min Rain = 0
KGDS 180040Z 22004KT 09/M06 A3006 RMK A01 T00891060  RH  034%=      5-min Rain = 0
KGDS 180045Z 21004KT 09/M06 A3006 RMK A01 T00851061  RH  035%=      5-min Rain = 0
KGDS 180050Z 21004KT 08/M06 A3006 RMK A01 T00841061  RH  035%=      5-min Rain = 0
KGDS 180055Z 21005KT 08/M06 A3006 RMK A01 T00811060  RH  036%=      5-min Rain = 0
KGDS 180100Z 20004KT 08/M06 A3006 RMK A01 T00791060  RH  037%=      5-min Rain = 0
KGDS 180105Z 20005KT 07/M06 A3006 RMK A01 T00741059  RH  038%=      5-min Rain = 0
KGDS 180110Z 20005KT 07/M06 A3006 RMK A01 T00721059  RH  039%=      5-min Rain = 0
KGDS 180115Z 20005KT 07/M06 A3006 RMK A01 T00691060  RH  040%=      5-min Rain = 0
KGDS 180120Z 21005KT 07/M06 A3006 RMK A01 T00681060  RH  040%=      5-min Rain = 0
KGDS 180125Z 22005KT 06/M06 A3006 RMK A01 T00631056  RH  042%=      5-min Rain = 0
KGDS 180130Z 22005KT 06/M05 A3006 RMK A01 T00581054  RH  045%=      5-min Rain = 0
KGDS 180135Z 22005KT 06/M06 A3006 RMK A01 T00551056  RH  045%=      5-min Rain = 0
KGDS 180140Z 23005KT 05/M06 A3006 RMK A01 T00521056  RH  046%=      5-min Rain = 0
KGDS 180145Z 23006KT 05/M06 A3005 RMK A01 T00521058  RH  045%=      5-min Rain = 0
KGDS 180150Z 22006KT 05/M06 A3005 RMK A01 T00491055  RH  047%=      5-min Rain = 0
KGDS 180155Z 22006KT 05/M05 A3005 RMK A01 T00451051  RH  050%=      5-min Rain = 0
KGDS 180200Z 22006KT 04/M05 A3005 RMK A01 T00401049  RH  052%=      5-min Rain = 0
KGDS 180205Z 22006KT 04/M05 A3005 RMK A01 T00401049  RH  052%=      5-min Rain = 0
KGDS 180210Z 22006KT 04/M05 A3005 RMK A01 T00381047  RH  054%=      5-min Rain = 0
KGDS 180215Z 22006KT 04/M05 A3005 RMK A01 T00361046  RH  055%=      5-min Rain = 0
KGDS 180220Z 22006KT 03/M05 A3005 RMK A01 T00331046  RH  056%=      5-min Rain = 0
KGDS 180225Z 23006KT 03/M05 A3005 RMK A01 T00321046  RH  057%=      5-min Rain = 0
KGDS 180230Z 23006KT 03/M05 A3004 RMK A01 T00321046  RH  057%=      5-min Rain = 0
KGDS 180235Z 23006KT 03/M05 A3004 RMK A01 T00311045  RH  058%=      5-min Rain = 0
KGDS 180240Z 23007KT 03/M05 A3004 RMK A01 T00301045  RH  058%=      5-min Rain = 0
KGDS 180245Z 22006KT 03/M05 A3004 RMK A01 T00271045  RH  059%=      5-min Rain = 0
KGDS 180250Z 23007KT 03/M05 A3004 RMK A01 T00271045  RH  059%=      5-min Rain = 0
KGDS 180255Z 22007KT 03/M05 A3004 RMK A01 T00251045  RH  060%=      5-min Rain = 0
KGDS 180300Z 22007KT 03/M05 A3004 RMK A01 T00251045  RH  060%=      5-min Rain = 0
KGDS 180305Z 22007KT 03/M05 A3004 RMK A01 T00251045  RH  060%=      5-min Rain = 0
KGDS 180310Z 22007KT 02/M05 A3004 RMK A01 T00241046  RH  060%=      5-min Rain = 0
KGDS 180315Z 22007KT 02/M05 A3003 RMK A01 T00221046  RH  061%=      5-min Rain = 0
KGDS 180320Z 22007KT 02/M05 A3003 RMK A01 T00211046  RH  061%=      5-min Rain = 0
KGDS 180325Z 22007KT 02/M05 A3003 RMK A01 T00211046  RH  062%=      5-min Rain = 0
KGDS 180330Z 22007KT 02/M05 A3003 RMK A01 T00211046  RH  062%=      5-min Rain = 0
KGDS 180335Z 22007KT 02/M05 A3003 RMK A01 T00211046  RH  062%=      5-min Rain = 0
KGDS 180340Z 22007KT 02/M05 A3003 RMK A01 T00211046  RH  061%=      5-min Rain = 0
KGDS 180345Z 22007KT 02/M05 A3003 RMK A01 T00221046  RH  061%=      5-min Rain = 0
KGDS 180350Z 22007KT 02/M05 A3003 RMK A01 T00201046  RH  062%=      5-min Rain = 0
KGDS 180355Z 22007KT 02/M05 A3003 RMK A01 T00191047  RH  062%=      5-min Rain = 0
KGDS 180400Z 22007KT 02/M05 A3002 RMK A01 T00171046  RH  063%=      5-min Rain = 0
KGDS 180405Z 23007KT 02/M05 A3003 RMK A01 T00161046  RH  063%=      5-min Rain = 0
KGDS 180410Z 23006KT 02/M05 A3003 RMK A01 T00151046  RH  064%=      5-min Rain = 0
KGDS 180415Z 23007KT 01/M05 A3002 RMK A01 T00141046  RH  064%=      5-min Rain = 0
KGDS 180420Z 23007KT 02/M05 A3002 RMK A01 T00151046  RH  064%=      5-min Rain = 0
KGDS 180425Z 22007KT 01/M05 A3002 RMK A01 T00131045  RH  065%=      5-min Rain = 0
KGDS 180430Z 21008KT 01/M05 A3002 RMK A01 T00131046  RH  065%=      5-min Rain = 0
KGDS 180435Z 22008KT 01/M05 A3002 RMK A01 T00121045  RH  066%=      5-min Rain = 0
KGDS 180440Z 22007KT 01/M05 A3002 RMK A01 T00101045  RH  067%=      5-min Rain = 0
KGDS 180445Z 22007KT 01/M05 A3002 RMK A01 T00091045  RH  067%=      5-min Rain = 0
KGDS 180450Z 22008KT 01/M05 A3001 RMK A01 T00081046  RH  067%=      5-min Rain = 0
KGDS 180455Z 22008KT 01/M05 A3001 RMK A01 T00091047  RH  067%=      5-min Rain = 0
KGDS 180500Z 22007KT 01/M05 A3001 RMK A01 T00091046  RH  067%=      5-min Rain = 0
KGDS 180505Z 21007KT 01/M05 A3001 RMK A01 T00101046  RH  066%=      5-min Rain = 0
KGDS 180510Z 21008KT 01/M05 A30 RMK A01 T00121047  RH  065%=      5-min Rain = 0
KGDS 180515Z 21007KT 01/M05 A30 RMK A01 T00121047  RH  065%=      5-min Rain = 0
KGDS 180520Z 22007KT 01/M05 A30 RMK A01 T00121048  RH  064%=      5-min Rain = 0
KGDS 180525Z 22007KT 01/M05 A30 RMK A01 T00121047  RH  065%=      5-min Rain = 0
KGDS 180530Z 22007KT 01/M05 A30 RMK A01 T00111047  RH  066%=      5-min Rain = 0
KGDS 180535Z 22008KT 01/M05 A2999 RMK A01 T00101046  RH  066%=      5-min Rain = 0
KGDS 180540Z 22007KT 01/M05 A2999 RMK A01 T00081046  RH  067%=      5-min Rain = 0
KGDS 180545Z 23006KT 01/M05 A2999 RMK A01 T00071046  RH  068%=      5-min Rain = 0
KGDS 180550Z 23006KT 01/M05 A2999 RMK A01 T00061045  RH  069%=      5-min Rain = 0
KGDS 180555Z 23006KT 01/M05 A2999 RMK A01 T00061045  RH  069%=      5-min Rain = 0

Page generated in 0.0085 seconds.